Boshof, South Africa
Current Conditions -  °F | °C
As of 2:00 PM on Saturday 27 Dec 2014 (Local Time) from FAKM Reporting Station
Broken Clouds Broken Clouds  
Wind Chill: 75°   Ceiling: 3500
Heat Index: 75°   Visibility: 6mi
Dew Point: 64°   Wind: 18mph
Humidity: 69%   Direction: 30°NNE
Pressure: 29.85"   Gusts: NA
Location:  28.54°S, 25.24°E
Report Text: FAKM 271200Z 03016KT 9999 BKN035 24/18 Q1011
Loading
Personal Weather Stations






























Interactive Weather Map New forecast layout! Learn more

10-Day Weather Forecast

Advertisements
Track Severe Weather on mobile